Time;durP1;ratioP1;P1;durP2;ratioP2;P2;SDS_P1;SDS_P2;PMS_P1;PMS_P2;Temp;Humidity;BMP_temperature;BMP_pressure;BME280_temperature;BME280_humidity;BME280_pressure;Samples;Min_cycle;Max_cycle;Signal;HPM_P1;HPM_P2
2023/11/21 00:01:32;;;;;;;4.22;2.25;;;;;;;9.68;98.81;100096.75;5091166;28;20433;-65
2023/11/21 00:03:57;;;;;;;5.18;2.15;;;;;;;9.68;99.07;100093.31;5094372;28;20383;-65
2023/11/21 00:06:23;;;;;;;3.45;1.55;;;;;;;9.63;99.24;100102.38;5091547;28;20028;-65
2023/11/21 00:08:48;;;;;;;4.35;1.67;;;;;;;9.63;99.37;100094.56;5094947;28;20040;-65
2023/11/21 00:11:14;;;;;;;5.45;1.65;;;;;;;9.65;98.56;100078.81;5092945;28;20046;-65
2023/11/21 00:13:39;;;;;;;4.68;1.55;;;;;;;9.66;98.21;100077.84;5097702;28;20043;-65
2023/11/21 00:16:05;;;;;;;6.95;1.95;;;;;;;9.63;98.46;100084.16;5098955;28;20104;-65
2023/11/21 00:18:31;;;;;;;6.88;2.05;;;;;;;9.59;99.20;100071.59;5095821;28;20044;-65
2023/11/21 00:20:58;;;;;;;4.55;1.92;;;;;;;9.57;99.86;100073.53;5096821;28;20031;-65
2023/11/21 00:23:24;;;;;;;5.47;1.48;;;;;;;9.50;100.00;100073.31;5094555;28;20044;-65
2023/11/21 00:25:49;;;;;;;3.05;1.75;;;;;;;9.45;100.00;100062.50;5096771;28;20034;-65
2023/11/21 00:28:15;;;;;;;3.63;1.63;;;;;;;9.38;100.00;100058.91;5094323;28;20032;-65
2023/11/21 00:30:41;;;;;;;4.38;1.83;;;;;;;9.38;100.00;100051.09;5095198;28;20116;-65
2023/11/21 00:33:07;;;;;;;2.58;1.60;;;;;;;9.38;100.00;100042.47;5091743;28;20052;-65
2023/11/21 00:35:32;;;;;;;4.85;1.92;;;;;;;9.34;100.00;100047.16;5092836;28;20039;-65
2023/11/21 00:37:58;;;;;;;5.03;1.80;;;;;;;9.32;100.00;100042.09;5099617;28;20486;-66
2023/11/21 00:40:24;;;;;;;4.93;1.88;;;;;;;9.35;100.00;100046.19;5092500;28;20481;-65
2023/11/21 00:42:50;;;;;;;4.93;1.83;;;;;;;9.34;100.00;100028.13;5095194;28;20027;-65
2023/11/21 00:45:15;;;;;;;5.28;2.25;;;;;;;9.34;100.00;100026.34;5102650;28;20382;-66
2023/11/21 00:47:42;;;;;;;3.15;1.52;;;;;;;9.41;100.00;100014.41;5098542;28;20680;-66
2023/11/21 00:50:09;;;;;;;7.88;2.67;;;;;;;9.51;100.00;100012.53;5094637;28;20036;-65
2023/11/21 00:52:34;;;;;;;5.75;1.92;;;;;;;9.59;100.00;100016.97;5092034;28;20838;-66
2023/11/21 00:55:00;;;;;;;11.15;5.07;;;;;;;9.63;100.00;100011.34;5090539;28;20028;-66
2023/11/21 00:57:26;;;;;;;6.20;2.10;;;;;;;9.61;100.00;100012.44;5092729;28;20056;-66
2023/11/21 00:59:52;;;;;;;5.45;1.58;;;;;;;9.56;100.00;100015.50;5091860;28;20085;-66
2023/11/21 01:02:18;;;;;;;4.25;1.55;;;;;;;9.55;100.00;100013.03;5093454;28;20036;-66
2023/11/21 01:04:43;;;;;;;2.60;1.27;;;;;;;9.62;100.00;100008.88;5093223;28;20061;-65
2023/11/21 01:07:09;;;;;;;4.45;1.27;;;;;;;9.67;100.00;100017.06;5094034;28;20106;-65
2023/11/21 01:09:34;;;;;;;2.97;1.63;;;;;;;9.67;100.00;100009.25;5093180;28;20086;-65
2023/11/21 01:12:00;;;;;;;4.95;0.95;;;;;;;9.61;100.00;100010.66;5090945;28;20028;-66
2023/11/21 01:14:26;;;;;;;2.92;1.17;;;;;;;9.56;100.00;100007.69;5092334;28;20028;-66
2023/11/21 01:16:52;;;;;;;2.78;1.50;;;;;;;9.61;100.00;100007.25;5096408;28;20514;-65
2023/11/21 01:19:18;;;;;;;4.60;1.80;;;;;;;9.63;100.00;100003.53;5095403;28;20028;-65
2023/11/21 01:21:43;;;;;;;2.70;1.33;;;;;;;9.59;100.00;100001.38;5094551;28;20047;-65
2023/11/21 01:24:09;;;;;;;3.95;1.20;;;;;;;9.53;100.00;99995.00;5094667;28;20036;-66
2023/11/21 01:26:34;;;;;;;5.50;1.42;;;;;;;9.51;100.00;99996.09;5094819;28;20456;-65
2023/11/21 01:29:00;;;;;;;4.03;1.40;;;;;;;9.47;100.00;100005.97;5092769;28;20437;-65
2023/11/21 01:31:29;;;;;;;4.70;0.95;;;;;;;9.46;100.00;99999.16;5095656;28;20032;-65
2023/11/21 01:33:55;;;;;;;3.47;1.50;;;;;;;9.39;100.00;99990.34;5092955;28;20088;-66
2023/11/21 01:36:21;;;;;;;2.35;1.17;;;;;;;9.38;100.00;99988.69;5096635;28;20043;-65
2023/11/21 01:38:47;;;;;;;4.03;1.50;;;;;;;9.38;100.00;99980.06;5097120;28;20115;-65
2023/11/21 01:41:13;;;;;;;3.03;1.52;;;;;;;9.37;100.00;99973.25;5094844;28;20039;-65
2023/11/21 01:43:39;;;;;;;2.08;1.00;;;;;;;9.39;100.00;99976.50;5090852;28;20408;-65
2023/11/21 01:46:06;;;;;;;2.05;1.20;;;;;;;9.40;100.00;99967.75;5092720;28;20107;-65
2023/11/21 01:48:32;;;;;;;2.45;1.42;;;;;;;9.48;100.00;99957.38;5093272;28;20040;-65
2023/11/21 01:50:58;;;;;;;7.07;1.25;;;;;;;9.57;100.00;99949.50;5093490;28;20101;-65
2023/11/21 01:53:28;;;;;;;5.35;1.50;;;;;;;9.79;100.00;99947.41;5099571;28;20032;-65
2023/11/21 01:55:55;;;;;;;3.58;1.58;;;;;;;9.84;100.00;99939.97;5093259;28;20122;-65
2023/11/21 01:58:21;;;;;;;3.38;1.60;;;;;;;9.90;100.00;99945.38;5091331;28;20479;-66
2023/11/21 02:00:50;;;;;;;7.93;2.60;;;;;;;9.93;100.00;99941.63;5094295;28;20073;-65
2023/11/21 02:03:16;;;;;;;3.13;2.00;;;;;;;9.96;100.00;99934.34;5092327;28;20040;-65
2023/11/21 02:05:42;;;;;;;3.22;1.40;;;;;;;9.89;100.00;99935.13;5101248;28;20169;-65
2023/11/21 02:08:09;;;;;;;4.38;1.75;;;;;;;9.84;100.00;99935.56;5091420;28;20085;-65
2023/11/21 02:10:36;;;;;;;8.32;3.42;;;;;;;9.82;100.00;99941.91;5096861;28;20114;-65
2023/11/21 02:13:02;;;;;;;7.93;4.07;;;;;;;9.81;100.00;99941.09;5097467;28;20471;-65
2023/11/21 02:15:28;;;;;;;6.18;4.35;;;;;;;9.80;100.00;99946.44;5096902;28;20040;-65
2023/11/21 02:17:54;;;;;;;8.82;4.63;;;;;;;9.81;100.00;99935.06;5096918;28;20028;-65
2023/11/21 02:20:22;;;;;;;15.15;5.05;;;;;;;9.83;100.00;99927.94;5091531;28;20509;-65
2023/11/21 02:22:57;;;;;;;11.30;5.30;;;;;;;9.87;100.00;99926.66;5105252;28;20513;-65
2023/11/21 02:25:33;;;;;;;8.18;4.57;;;;;;;9.91;100.00;99914.97;5093292;28;20036;-65
2023/11/21 02:28:02;;;;;;;9.05;4.47;;;;;;;9.96;100.00;99907.50;5096023;28;20055;-65
2023/11/21 02:30:28;;;;;;;8.00;2.95;;;;;;;10.03;100.00;99911.13;5089752;28;20144;-66
2023/11/21 02:32:54;;;;;;;2.03;1.23;;;;;;;10.06;100.00;99928.22;5101944;28;20114;-65
2023/11/21 02:35:21;;;;;;;1.83;0.77;;;;;;;10.00;100.00;99919.22;5093006;28;20032;-66
2023/11/21 02:37:47;;;;;;;3.30;0.82;;;;;;;9.88;100.00;99925.69;5091329;28;20475;-66
2023/11/21 02:40:17;;;;;;;2.90;1.20;;;;;;;9.77;100.00;99921.53;5092039;28;20051;-66
2023/11/21 02:42:47;;;;;;;2.08;0.93;;;;;;;9.70;100.00;99928.31;5089592;28;20032;-65
2023/11/21 02:45:14;;;;;;;3.40;0.95;;;;;;;9.65;100.00;99922.75;5097540;28;20639;-65
2023/11/21 02:47:40;;;;;;;1.58;0.77;;;;;;;9.63;100.00;99922.91;5092586;28;20043;-65
2023/11/21 02:50:08;;;;;;;4.07;0.88;;;;;;;9.60;100.00;99920.59;5089672;28;20028;-65
2023/11/21 02:52:35;;;;;;;2.30;0.93;;;;;;;9.57;100.00;99915.69;5097072;28;20407;-65
2023/11/21 02:55:01;;;;;;;2.75;0.82;;;;;;;9.57;100.00;99922.69;5090544;28;20032;-65
2023/11/21 02:57:26;;;;;;;2.58;1.02;;;;;;;9.59;100.00;99925.97;5090847;28;20494;-65
2023/11/21 02:59:52;;;;;;;4.05;0.80;;;;;;;9.60;100.00;99922.38;5089614;28;20051;-65
2023/11/21 03:02:17;;;;;;;2.17;0.90;;;;;;;9.59;100.00;99918.16;5089731;28;20032;-65
2023/11/21 03:04:43;;;;;;;3.00;0.90;;;;;;;9.60;100.00;99918.00;5088995;28;20447;-65
2023/11/21 03:07:09;;;;;;;3.90;1.08;;;;;;;9.58;100.00;99912.13;5091000;28;20168;-66
2023/11/21 03:09:35;;;;;;;1.52;0.77;;;;;;;9.60;100.00;99902.41;5087462;28;20076;-66
2023/11/21 03:12:00;;;;;;;2.72;1.05;;;;;;;9.65;100.00;99905.38;5091224;28;20573;-65
2023/11/21 03:14:26;;;;;;;1.92;0.73;;;;;;;9.72;100.00;99894.34;5088823;28;20376;-65
2023/11/21 03:16:51;;;;;;;1.92;0.75;;;;;;;9.80;100.00;99887.41;5091589;28;20034;-66
2023/11/21 03:19:17;;;;;;;2.65;1.13;;;;;;;9.87;100.00;99885.84;5092802;28;20028;-66
2023/11/21 03:21:42;;;;;;;1.88;0.70;;;;;;;9.97;100.00;99877.91;5092160;28;20039;-65
2023/11/21 03:24:08;;;;;;;3.75;0.80;;;;;;;9.96;100.00;99884.06;5091756;28;20510;-67
2023/11/21 03:26:33;;;;;;;3.00;1.08;;;;;;;10.02;100.00;99875.66;5091869;28;20040;-66
2023/11/21 03:28:59;;;;;;;1.38;0.60;;;;;;;10.04;100.00;99868.50;5091766;28;20031;-65
2023/11/21 03:31:24;;;;;;;2.75;1.23;;;;;;;10.02;100.00;99860.03;5089345;28;20541;-66
2023/11/21 03:33:50;;;;;;;5.35;1.23;;;;;;;9.94;100.00;99857.38;5090807;28;20463;-66
2023/11/21 03:36:15;;;;;;;2.67;1.15;;;;;;;9.92;100.00;99857.53;5091292;28;20073;-66
2023/11/21 03:38:41;;;;;;;3.25;1.10;;;;;;;9.94;99.88;99863.41;5091130;28;20036;-66
2023/11/21 03:41:10;;;;;;;3.78;0.90;;;;;;;9.88;100.00;99858.84;5092915;28;20047;-65
2023/11/21 03:43:36;;;;;;;4.68;1.02;;;;;;;9.88;100.00;99868.44;5095156;28;20028;-66
2023/11/21 03:46:02;;;;;;;2.88;0.90;;;;;;;9.86;100.00;99859.97;5091418;28;20028;-66
2023/11/21 03:48:27;;;;;;;1.50;0.93;;;;;;;9.83;100.00;99860.28;5095783;28;20036;-65
2023/11/21 03:50:53;;;;;;;1.92;1.10;;;;;;;9.76;100.00;99859.25;5096929;28;20101;-65
2023/11/21 03:53:18;;;;;;;2.92;0.88;;;;;;;9.73;100.00;99862.16;5089398;28;20054;-65
2023/11/21 03:55:44;;;;;;;3.08;0.82;;;;;;;9.69;100.00;99855.63;5098237;28;20055;-66
2023/11/21 03:58:09;;;;;;;3.47;0.90;;;;;;;9.64;100.00;99864.72;5094149;28;20118;-65
2023/11/21 04:00:35;;;;;;;5.25;1.00;;;;;;;9.57;100.00;99863.69;5088881;28;20078;-65
2023/11/21 04:03:00;;;;;;;1.58;0.80;;;;;;;9.52;100.00;99868.53;5089959;28;20047;-65
2023/11/21 04:05:25;;;;;;;2.30;0.95;;;;;;;9.46;100.00;99870.91;5090334;28;20020;-65
2023/11/21 04:07:51;;;;;;;2.63;1.05;;;;;;;9.41;100.00;99868.78;5093364;28;20463;-65
2023/11/21 04:10:18;;;;;;;2.83;0.85;;;;;;;9.39;100.00;99872.50;5094311;28;20047;-65
2023/11/21 04:12:44;;;;;;;3.35;1.08;;;;;;;9.42;100.00;99869.63;5089200;28;20028;-65
2023/11/21 04:15:10;;;;;;;2.60;1.00;;;;;;;9.45;100.00;99880.50;5088639;28;20028;-66
2023/11/21 04:17:36;;;;;;;1.98;0.85;;;;;;;9.45;100.00;99874.50;5089814;28;20032;-65
2023/11/21 04:20:03;;;;;;;3.88;1.00;;;;;;;9.49;100.00;99868.00;5096567;28;20084;-65
2023/11/21 04:22:28;;;;;;;2.47;0.95;;;;;;;9.51;100.00;99868.69;5098678;28;20446;-65
2023/11/21 04:24:55;;;;;;;2.95;1.45;;;;;;;9.54;100.00;99861.38;5098833;28;20039;-65
2023/11/21 04:27:21;;;;;;;2.17;0.70;;;;;;;9.57;100.00;99863.69;5101296;28;20040;-65
2023/11/21 04:29:46;;;;;;;3.33;1.08;;;;;;;9.60;100.00;99871.19;5098949;28;20504;-65
2023/11/21 04:32:12;;;;;;;2.53;1.08;;;;;;;9.64;100.00;99871.69;5089345;28;20024;-65
2023/11/21 04:34:38;;;;;;;3.15;0.77;;;;;;;9.67;100.00;99865.38;5094390;28;20471;-65
2023/11/21 04:37:06;;;;;;;2.95;0.93;;;;;;;9.65;100.00;99868.94;5094398;28;20048;-65
2023/11/21 04:39:31;;;;;;;3.42;0.90;;;;;;;9.71;100.00;99877.09;5095252;28;20130;-65
2023/11/21 04:41:57;;;;;;;8.68;1.17;;;;;;;9.75;100.00;99871.44;5089264;28;20122;-65
2023/11/21 04:44:22;;;;;;;3.15;1.10;;;;;;;9.77;100.00;99866.09;5097320;28;20049;-66
2023/11/21 04:46:48;;;;;;;1.80;0.88;;;;;;;9.84;100.00;99869.72;5089479;28;20035;-65
2023/11/21 04:49:14;;;;;;;1.67;0.80;;;;;;;9.84;100.00;99862.72;5100414;28;20065;-65
2023/11/21 04:51:39;;;;;;;3.25;1.25;;;;;;;9.90;100.00;99861.28;5107565;28;20078;-65
2023/11/21 04:54:05;;;;;;;3.83;1.02;;;;;;;9.89;100.00;99862.28;5093406;28;20068;-65
2023/11/21 04:56:31;;;;;;;3.17;0.90;;;;;;;9.88;100.00;99856.25;5091490;28;20028;-65
2023/11/21 04:58:56;;;;;;;1.92;0.70;;;;;;;9.85;100.00;99869.56;5093478;28;20089;-65
2023/11/21 05:01:22;;;;;;;3.40;1.27;;;;;;;9.83;100.00;99863.69;5092831;28;20032;-65
2023/11/21 05:03:48;;;;;;;1.40;0.70;;;;;;;9.82;100.00;99858.66;5091240;28;20035;-65
2023/11/21 05:06:14;;;;;;;3.38;1.00;;;;;;;9.78;100.00;99858.13;5092183;28;20024;-65
2023/11/21 05:08:40;;;;;;;3.55;0.98;;;;;;;9.71;100.00;99859.72;5092147;28;20051;-65
2023/11/21 05:11:07;;;;;;;3.38;0.80;;;;;;;9.64;100.00;99863.91;5092872;28;20021;-65
2023/11/21 05:13:34;;;;;;;2.70;0.75;;;;;;;9.60;100.00;99860.78;5091302;28;20119;-65
2023/11/21 05:15:59;;;;;;;2.78;0.90;;;;;;;9.57;100.00;99862.88;5093120;28;20051;-65
2023/11/21 05:18:29;;;;;;;2.05;1.00;;;;;;;9.53;100.00;99870.16;5093306;28;20028;-65
2023/11/21 05:20:55;;;;;;;3.58;0.93;;;;;;;9.51;100.00;99866.91;5092435;28;20357;-65
2023/11/21 05:23:21;;;;;;;2.33;0.93;;;;;;;9.46;100.00;99863.94;5092824;28;20047;-65
2023/11/21 05:25:46;;;;;;;1.55;0.90;;;;;;;9.43;100.00;99866.88;5091916;28;20388;-64
2023/11/21 05:28:12;;;;;;;1.70;0.75;;;;;;;9.40;100.00;99868.94;5091460;28;20020;-64
2023/11/21 05:30:40;;;;;;;4.78;1.55;;;;;;;9.36;100.00;99875.41;5094128;28;20464;-64
2023/11/21 05:33:06;;;;;;;2.72;1.20;;;;;;;9.32;100.00;99872.28;5095797;28;20054;-65
2023/11/21 05:35:31;;;;;;;2.28;1.10;;;;;;;9.30;100.00;99874.22;5096152;28;20071;-65
2023/11/21 05:37:57;;;;;;;2.08;0.82;;;;;;;9.24;100.00;99874.81;5094455;28;20462;-65
2023/11/21 05:40:22;;;;;;;3.08;1.42;;;;;;;9.21;100.00;99880.31;5094197;28;20096;-64
2023/11/21 05:42:48;;;;;;;3.55;1.45;;;;;;;9.18;100.00;99883.22;5093497;28;20031;-63
2023/11/21 05:45:15;;;;;;;4.93;2.00;;;;;;;9.11;100.00;99882.19;5097212;28;20089;-64
2023/11/21 05:47:42;;;;;;;3.92;1.40;;;;;;;9.08;100.00;99885.88;5093957;28;20403;-63
2023/11/21 05:50:10;;;;;;;5.45;1.98;;;;;;;9.05;100.00;99888.78;5094630;28;20527;-63
2023/11/21 05:52:37;;;;;;;5.63;2.03;;;;;;;9.04;100.00;99889.75;5093925;28;20131;-64
2023/11/21 05:55:04;;;;;;;3.13;1.05;;;;;;;9.04;100.00;99897.53;5090441;28;20584;-64
2023/11/21 05:57:30;;;;;;;4.13;1.77;;;;;;;9.01;100.00;99894.44;5090744;28;20134;-64
2023/11/21 05:59:56;;;;;;;6.82;1.17;;;;;;;8.97;100.00;99897.34;5090887;28;20039;-64
2023/11/21 06:02:21;;;;;;;4.20;1.27;;;;;;;8.97;100.00;99899.13;5092470;28;20031;-64
2023/11/21 06:04:46;;;;;;;3.97;1.20;;;;;;;8.96;100.00;99890.53;5091352;28;22176;-64
2023/11/21 06:07:12;;;;;;;1.90;1.13;;;;;;;8.96;100.00;99892.31;5091685;28;20028;-64
2023/11/21 06:09:37;;;;;;;5.88;2.10;;;;;;;8.97;100.00;99897.34;5090355;28;20058;-64
2023/11/21 06:12:03;;;;;;;2.75;1.25;;;;;;;8.98;100.00;99888.56;5090662;28;20035;-64
2023/11/21 06:14:29;;;;;;;3.10;1.88;;;;;;;9.01;100.00;99894.44;5090441;28;20383;-64
2023/11/21 06:16:56;;;;;;;5.85;1.45;;;;;;;9.00;100.00;99896.22;5092698;28;20039;-64
2023/11/21 06:19:21;;;;;;;4.72;1.70;;;;;;;9.02;100.00;99901.25;5091514;28;20040;-64
2023/11/21 06:21:47;;;;;;;7.93;1.80;;;;;;;9.02;100.00;99898.66;5091123;28;20223;-64
2023/11/21 06:24:15;;;;;;;4.68;2.63;;;;;;;9.03;100.00;99902.88;5091324;28;20074;-64
2023/11/21 06:26:41;;;;;;;7.18;4.10;;;;;;;9.05;100.00;99900.97;5091548;28;20024;-64
2023/11/21 06:29:06;;;;;;;6.88;1.85;;;;;;;9.06;100.00;99892.19;5092401;28;20107;-64
2023/11/21 06:31:32;;;;;;;5.45;0.88;;;;;;;9.10;100.00;99898.75;5090131;28;20142;-64
2023/11/21 06:33:59;;;;;;;3.47;0.77;;;;;;;9.14;100.00;99900.06;5090982;28;20510;-64
2023/11/21 06:36:26;;;;;;;2.80;1.42;;;;;;;9.13;100.00;99903.63;5097821;28;20047;-64
2023/11/21 06:38:51;;;;;;;2.03;1.20;;;;;;;9.14;100.00;99898.28;5097106;28;20114;-64
2023/11/21 06:41:17;;;;;;;2.78;1.00;;;;;;;9.14;100.00;99900.06;5088466;28;20088;-64
2023/11/21 06:43:46;;;;;;;2.08;1.13;;;;;;;9.15;100.00;99901.72;5094731;28;20028;-64
2023/11/21 06:46:14;;;;;;;2.63;0.60;;;;;;;9.16;100.00;99903.34;5094630;28;20098;-64
2023/11/21 06:48:41;;;;;;;3.45;1.05;;;;;;;9.18;100.00;99902.22;5094523;28;20487;-64
2023/11/21 06:51:07;;;;;;;3.38;1.27;;;;;;;9.17;100.00;99897.19;5091871;28;20027;-64
2023/11/21 06:53:32;;;;;;;1.25;0.55;;;;;;;9.17;100.00;99891.97;5092170;28;20032;-64
2023/11/21 06:55:58;;;;;;;3.47;0.90;;;;;;;9.17;100.00;99889.38;5094069;28;20027;-64
2023/11/21 06:58:23;;;;;;;3.13;1.00;;;;;;;9.18;100.00;99893.63;5093699;28;20046;-64
2023/11/21 07:00:50;;;;;;;1.70;0.57;;;;;;;9.18;100.00;99891.03;5095106;28;20383;-64
2023/11/21 07:03:15;;;;;;;2.58;0.30;;;;;;;9.22;100.00;99892.34;5090604;28;20043;-64
2023/11/21 07:05:41;;;;;;;1.02;0.30;;;;;;;9.18;100.00;99904.00;5092491;28;20031;-64
2023/11/21 07:08:07;;;;;;;2.90;0.50;;;;;;;9.16;100.00;99906.75;5091116;28;20024;-64
2023/11/21 07:10:33;;;;;;;0.93;0.22;;;;;;;9.13;100.00;99908.84;5097190;28;20074;-64
2023/11/21 07:12:58;;;;;;;1.02;0.10;;;;;;;9.10;100.00;99906.53;5094615;28;20071;-64
2023/11/21 07:15:25;;;;;;;0.10;0.03;;;;;;;9.09;100.00;99917.91;5093696;28;20031;-63
2023/11/21 07:17:52;;;;;;;0.40;0.10;;;;;;;9.04;100.00;99907.13;5089198;28;20024;-63
2023/11/21 07:20:17;;;;;;;0.90;0.00;;;;;;;9.21;100.00;99901.94;5097117;28;20497;-63
2023/11/21 07:22:43;;;;;;;0.22;0.00;;;;;;;9.17;100.00;99894.59;5097317;28;20051;-64
2023/11/21 07:25:09;;;;;;;0.10;0.00;;;;;;;9.12;100.00;99905.41;5090766;28;20085;-64
2023/11/21 07:27:35;;;;;;;0.20;0.10;;;;;;;9.12;100.00;99902.00;5088818;28;20089;-64
2023/11/21 07:30:04;;;;;;;1.80;0.10;;;;;;;9.11;100.00;99905.56;5089329;28;20020;-64
2023/11/21 07:32:30;;;;;;;1.17;0.10;;;;;;;9.21;100.00;99901.94;5088218;28;20036;-64
2023/11/21 07:34:58;;;;;;;0.20;0.10;;;;;;;9.27;100.00;99908.31;5089667;28;20032;-64
2023/11/21 07:37:23;;;;;;;0.30;0.05;;;;;;;9.24;100.00;99911.22;5090501;28;20097;-64
2023/11/21 07:39:49;;;;;;;0.43;0.00;;;;;;;9.26;100.00;99911.88;5088796;28;20036;-64
2023/11/21 07:42:14;;;;;;;0.20;0.10;;;;;;;9.35;100.00;99921.38;5089995;28;20020;-65
2023/11/21 07:44:39;;;;;;;0.70;0.20;;;;;;;9.40;100.00;99911.38;5088962;28;20036;-65
2023/11/21 07:47:05;;;;;;;3.90;1.83;;;;;;;9.47;100.00;99912.38;5090010;28;20548;-65
2023/11/21 07:49:30;;;;;;;5.22;3.13;;;;;;;9.58;100.00;99914.72;5089350;28;20070;-66
2023/11/21 07:51:56;;;;;;;1.63;0.70;;;;;;;9.71;100.00;99910.94;5089925;28;20511;-64
2023/11/21 07:54:21;;;;;;;0.20;0.10;;;;;;;9.69;100.00;99907.66;5089670;28;20489;-65
2023/11/21 07:56:47;;;;;;;0.03;0.00;;;;;;;9.75;100.00;99904.44;5090082;28;20150;-65
2023/11/21 07:59:14;;;;;;;1.20;0.10;;;;;;;9.78;100.00;99906.75;5090489;28;20035;-65
2023/11/21 08:01:40;;;;;;;0.10;0.00;;;;;;;9.85;100.00;99905.16;5091714;28;20114;-66
2023/11/21 08:04:06;;;;;;;0.50;0.00;;;;;;;9.92;100.00;99893.19;5091255;28;20020;-66
2023/11/21 08:06:32;;;;;;;0.20;0.00;;;;;;;9.97;100.00;99893.50;5089394;28;20039;-66
2023/11/21 08:08:58;;;;;;;2.33;0.00;;;;;;;10.04;100.00;99891.94;5090745;28;20073;-66
2023/11/21 08:11:24;;;;;;;0.40;0.10;;;;;;;10.00;100.00;99888.00;5087484;28;20503;-66
2023/11/21 08:13:49;;;;;;;0.10;0.00;;;;;;;9.97;100.00;99891.72;5089419;28;20062;-67
2023/11/21 08:16:15;;;;;;;0.28;0.00;;;;;;;10.06;100.00;99881.38;5087102;28;20024;-67
2023/11/21 08:18:41;;;;;;;0.75;0.10;;;;;;;10.12;100.00;99875.53;5088765;28;20035;-67
2023/11/21 08:21:07;;;;;;;0.40;0.00;;;;;;;10.19;100.00;99876.56;5087824;28;20070;-67
2023/11/21 08:23:34;;;;;;;0.30;0.00;;;;;;;10.18;100.00;99872.31;5093955;28;20105;-67
2023/11/21 08:25:59;;;;;;;0.20;0.00;;;;;;;10.40;95.42;99878.78;5093222;28;20030;-68
2023/11/21 08:28:25;;;;;;;0.65;0.08;;;;;;;10.33;100.00;99888.19;5095982;28;20554;-65
2023/11/21 08:30:52;;;;;;;3.67;0.10;;;;;;;10.32;100.00;99894.38;5092722;28;20053;-67
2023/11/21 08:33:18;;;;;;;0.40;0.10;;;;;;;10.24;100.00;99880.34;5088049;28;20047;-64
2023/11/21 08:35:44;;;;;;;0.13;0.05;;;;;;;10.27;100.00;99885.25;5092921;28;20032;-64
2023/11/21 08:38:10;;;;;;;0.70;0.00;;;;;;;10.24;100.00;99898.56;5093808;28;20059;-64
2023/11/21 08:40:36;;;;;;;0.25;0.00;;;;;;;10.28;100.00;99891.28;5092833;28;20031;-64
2023/11/21 08:43:04;;;;;;;0.10;0.00;;;;;;;10.32;100.00;99887.38;5090861;28;20360;-64
2023/11/21 08:45:30;;;;;;;1.75;0.10;;;;;;;10.44;99.19;99895.69;5090693;28;20055;-65
2023/11/21 08:47:55;;;;;;;0.30;0.00;;;;;;;10.45;96.35;99886.91;5095986;28;20027;-65
2023/11/21 08:50:21;;;;;;;0.10;0.00;;;;;;;10.67;91.00;99883.75;5093832;28;20024;-65
2023/11/21 08:52:47;;;;;;;0.10;0.00;;;;;;;10.73;87.88;99888.31;5092904;28;22388;-65
2023/11/21 08:55:13;;;;;;;0.52;0.00;;;;;;;10.66;91.79;99873.47;5095133;28;20028;-65
2023/11/21 08:57:42;;;;;;;0.20;0.00;;;;;;;10.63;92.40;99888.44;5093857;28;20043;-65
2023/11/21 09:00:11;;;;;;;0.28;0.00;;;;;;;10.55;99.31;99890.22;5095676;28;20484;-64
2023/11/21 09:02:38;;;;;;;1.00;0.00;;;;;;;10.48;99.73;99891.81;5089520;28;20113;-65
2023/11/21 09:05:09;;;;;;;0.00;0.00;;;;;;;10.54;96.47;99885.97;5097804;28;20359;-65
2023/11/21 09:07:35;;;;;;;0.20;0.05;;;;;;;10.52;99.05;99886.13;5101398;28;20383;-65
2023/11/21 09:10:01;;;;;;;0.10;0.00;;;;;;;10.45;99.10;99889.53;5093228;28;20039;-66
2023/11/21 09:12:26;;;;;;;0.20;0.00;;;;;;;10.48;100.00;99891.81;5092204;28;20024;-65
2023/11/21 09:14:52;;;;;;;0.28;0.00;;;;;;;10.46;100.00;99891.16;5095243;28;20108;-65
2023/11/21 09:17:18;;;;;;;0.52;0.00;;;;;;;10.42;100.00;99902.84;5092884;28;20383;-65
2023/11/21 09:19:47;;;;;;;1.17;0.00;;;;;;;10.50;100.00;99905.50;5091304;28;20069;-65
2023/11/21 09:22:12;;;;;;;0.30;0.00;;;;;;;10.49;98.52;99909.06;5097924;28;20497;-65
2023/11/21 09:24:38;;;;;;;0.22;0.00;;;;;;;10.48;99.23;99903.03;5094996;28;20040;-65
2023/11/21 09:27:05;;;;;;;0.70;0.00;;;;;;;10.54;95.65;99902.41;5094504;28;20031;-65
2023/11/21 09:29:31;;;;;;;1.10;0.10;;;;;;;10.81;92.08;99900.56;5091065;28;20017;-68
2023/11/21 09:31:59;;;;;;;1.20;0.10;;;;;;;10.90;92.92;99897.78;5092309;28;20027;-67
2023/11/21 09:34:25;;;;;;;0.70;0.10;;;;;;;10.89;95.12;99900.53;5089447;28;20051;-65
2023/11/21 09:36:51;;;;;;;0.40;0.10;;;;;;;10.88;97.81;99891.91;5090678;28;20714;-65
2023/11/21 09:39:20;;;;;;;0.43;0.20;;;;;;;10.91;97.67;99893.38;5089885;28;20119;-67
2023/11/21 09:42:22;;;;;;;0.40;0.10;;;;;;;10.94;96.82;99893.88;5091686;28;20077;-66
2023/11/21 09:45:04;;;;;;;1.52;0.10;;;;;;;11.03;95.53;99899.09;5066920;28;20081;-68
2023/11/21 09:47:30;;;;;;;0.57;0.10;;;;;;;11.32;84.80;99891.66;5090958;28;20039;-68
2023/11/21 09:50:00;;;;;;;0.82;0.00;;;;;;;11.98;76.95;99887.97;5091873;28;20020;-68
2023/11/21 09:52:27;;;;;;;0.10;0.00;;;;;;;12.33;71.96;99886.72;5091035;28;20043;-68
2023/11/21 09:54:54;;;;;;;0.10;0.00;;;;;;;12.48;71.08;99882.41;5091552;28;20020;-68
2023/11/21 09:57:23;;;;;;;0.17;0.00;;;;;;;12.59;74.43;99875.97;5091586;28;20031;-68
2023/11/21 09:59:59;;;;;;;0.17;0.05;;;;;;;12.70;71.88;99898.31;5090879;28;20028;-67
2023/11/21 10:02:30;;;;;;;0.40;0.10;;;;;;;12.65;73.48;99885.75;5089182;28;20031;-68
2023/11/21 10:04:56;;;;;;;0.13;0.00;;;;;;;12.66;74.07;99887.38;5091955;28;20073;-69
2023/11/21 10:07:22;;;;;;;0.10;0.00;;;;;;;12.65;72.66;99890.16;5093334;28;20070;-69
2023/11/21 10:09:48;;;;;;;0.22;0.00;;;;;;;12.63;73.89;99893.75;5089896;28;20032;-68
2023/11/21 10:12:16;;;;;;;0.15;0.00;;;;;;;12.59;75.43;99882.03;5092054;28;20039;-68
2023/11/21 10:14:43;;;;;;;1.80;0.00;;;;;;;12.55;74.60;99888.56;5090541;28;20048;-68
2023/11/21 10:17:12;;;;;;;0.28;0.00;;;;;;;12.50;74.00;99887.47;5091606;28;20028;-68
2023/11/21 10:19:39;;;;;;;0.75;0.00;;;;;;;12.45;70.49;99897.59;5094324;28;20477;-68
2023/11/21 10:22:06;;;;;;;0.75;0.10;;;;;;;12.51;72.02;99910.00;5091089;28;20122;-69
2023/11/21 10:24:32;;;;;;;0.13;0.10;;;;;;;12.44;72.79;99872.47;5089621;28;20453;-68
2023/11/21 10:26:58;;;;;;;0.20;0.00;;;;;;;12.59;70.21;99896.88;5090590;28;20031;-69
2023/11/21 10:29:23;;;;;;;0.10;0.00;;;;;;;12.61;70.92;99894.91;5090709;28;20034;-69
2023/11/21 10:31:51;;;;;;;0.00;0.00;;;;;;;12.53;73.09;99894.97;5089594;28;20081;-72
2023/11/21 10:34:18;;;;;;;0.20;0.00;;;;;;;12.46;71.90;99884.38;5085488;28;20115;-70
2023/11/21 10:36:44;;;;;;;0.10;0.00;;;;;;;12.44;70.37;99888.94;5089904;28;20032;-70
2023/11/21 10:39:13;;;;;;;0.10;0.00;;;;;;;12.40;70.71;99898.09;5089979;28;20551;-71
2023/11/21 10:41:39;;;;;;;0.45;0.10;;;;;;;12.35;71.72;99876.09;5089924;28;20059;-69
2023/11/21 10:44:07;;;;;;;0.60;0.10;;;;;;;12.29;71.00;99881.00;5089758;28;20019;-68
2023/11/21 10:46:33;;;;;;;0.10;0.00;;;;;;;12.33;70.67;99891.13;5090329;28;20135;-70
2023/11/21 10:49:00;;;;;;;0.15;0.10;;;;;;;12.24;72.77;99903.41;5090057;28;20040;-68
2023/11/21 10:51:25;;;;;;;1.05;0.00;;;;;;;12.16;73.98;99896.41;5090914;28;20055;-70
2023/11/21 10:53:54;;;;;;;0.32;0.10;;;;;;;12.14;73.00;99913.25;5089832;28;20056;-71
2023/11/21 10:56:23;;;;;;;0.10;0.00;;;;;;;12.17;71.74;99903.28;5089024;28;20065;-71
2023/11/21 10:58:51;;;;;;;0.05;0.00;;;;;;;12.18;71.88;99902.28;5088865;28;20031;-69
2023/11/21 11:01:18;;;;;;;0.20;0.10;;;;;;;12.21;69.56;99912.41;5089155;28;20028;-69
2023/11/21 11:03:44;;;;;;;0.10;0.00;;;;;;;12.20;72.38;99900.31;5090240;28;20028;-69
2023/11/21 11:06:13;;;;;;;0.10;0.00;;;;;;;12.21;70.97;99899.34;5093390;28;20053;-72
2023/11/21 11:08:39;;;;;;;0.10;0.00;;;;;;;12.18;72.19;99888.41;5090013;28;20502;-69
2023/11/21 11:11:10;;;;;;;0.30;0.15;;;;;;;12.18;69.31;99873.56;5089367;28;20036;-69
2023/11/21 11:13:37;;;;;;;0.10;0.00;;;;;;;12.29;72.68;99874.97;5089789;28;20433;-70
2023/11/21 11:16:06;;;;;;;0.10;0.00;;;;;;;12.27;70.00;99877.78;5089778;28;20123;-71
2023/11/21 11:18:32;;;;;;;0.03;0.00;;;;;;;12.24;72.85;99864.25;5089015;28;20032;-70
2023/11/21 11:21:10;;;;;;;0.25;0.00;;;;;;;12.33;68.03;99859.78;5087331;28;20056;-71
2023/11/21 11:23:54;;;;;;;0.00;0.00;;;;;;;12.36;67.57;99860.25;5086825;28;20167;-71
2023/11/21 11:26:35;;;;;;;0.03;0.00;;;;;;;12.30;72.66;99882.63;5088833;28;20147;-70
2023/11/21 11:29:15;;;;;;;0.20;0.00;;;;;;;12.25;70.80;99878.94;5088528;28;20115;-70